sensor_id;sensor_type;location;lat;lon;timestamp;pressure;altitude;pressure_sealevel;temperature;humidity
9690;BME280;4884;42.614;23.340;2022-07-25T00:01:23;404.53;;;19.74;100.00
9690;BME280;4884;42.614;23.340;2022-07-25T00:03:48;1387.16;;;19.78;100.00
9690;BME280;4884;42.614;23.340;2022-07-25T00:06:14;5975.88;;;19.85;100.00
9690;BME280;4884;42.614;23.340;2022-07-25T00:08:39;5325.19;;;20.20;100.00
9690;BME280;4884;42.614;23.340;2022-07-25T00:11:05;10578.56;;;20.24;100.00
9690;BME280;4884;42.614;23.340;2022-07-25T00:13:30;12215.31;;;20.00;100.00
9690;BME280;4884;42.614;23.340;2022-07-25T00:15:55;13865.84;;;20.27;100.00
9690;BME280;4884;42.614;23.340;2022-07-25T00:18:21;16817.47;;;20.00;100.00
9690;BME280;4884;42.614;23.340;2022-07-25T00:20:46;28697.38;;;20.40;100.00
9690;BME280;4884;42.614;23.340;2022-07-25T00:23:12;48901.19;;;20.56;100.00
9690;BME280;4884;42.614;23.340;2022-07-25T00:25:37;67879.53;;;20.68;100.00
9690;BME280;4884;42.614;23.340;2022-07-25T00:28:03;74546.94;;;20.61;100.00
9690;BME280;4884;42.614;23.340;2022-07-25T00:30:28;69896.63;;;20.81;100.00
9690;BME280;4884;42.614;23.340;2022-07-25T00:32:54;63210.59;;;20.67;100.00
9690;BME280;4884;42.614;23.340;2022-07-25T00:35:19;71909.97;;;20.89;100.00
9690;BME280;4884;42.614;23.340;2022-07-25T00:37:44;74243.66;;;20.85;100.00
9690;BME280;4884;42.614;23.340;2022-07-25T00:40:10;80939.44;;;20.90;100.00
9690;BME280;4884;42.614;23.340;2022-07-25T00:42:36;70536.16;;;20.57;100.00
9690;BME280;4884;42.614;23.340;2022-07-25T00:45:02;70556.97;;;20.75;100.00
9690;BME280;4884;42.614;23.340;2022-07-25T00:47:28;68554.47;;;20.75;100.00
9690;BME280;4884;42.614;23.340;2022-07-25T00:49:54;72896.38;;;20.76;100.00
9690;BME280;4884;42.614;23.340;2022-07-25T00:52:19;78239.81;;;20.73;100.00
9690;BME280;4884;42.614;23.340;2022-07-25T00:54:45;66520.00;;;20.46;100.00
9690;BME280;4884;42.614;23.340;2022-07-25T00:57:11;63853.06;;;20.45;100.00
9690;BME280;4884;42.614;23.340;2022-07-25T00:59:36;56821.53;;;20.01;100.00
9690;BME280;4884;42.614;23.340;2022-07-25T01:02:02;47219.34;;;20.29;100.00
9690;BME280;4884;42.614;23.340;2022-07-25T01:04:27;42249.47;;;20.31;100.00
9690;BME280;4884;42.614;23.340;2022-07-25T01:06:52;25393.16;;;20.31;100.00
9690;BME280;4884;42.614;23.340;2022-07-25T01:09:19;18794.84;;;20.09;100.00
9690;BME280;4884;42.614;23.340;2022-07-25T01:11:45;23746.72;;;20.36;100.00
9690;BME280;4884;42.614;23.340;2022-07-25T01:14:10;23418.81;;;20.40;100.00
9690;BME280;4884;42.614;23.340;2022-07-25T01:16:36;26045.22;;;20.15;100.00
9690;BME280;4884;42.614;23.340;2022-07-25T01:19:01;27372.97;;;20.32;100.00
9690;BME280;4884;42.614;23.340;2022-07-25T01:21:27;29350.09;;;20.26;100.00
9690;BME280;4884;42.614;23.340;2022-07-25T01:23:53;30339.16;;;20.23;100.00
9690;BME280;4884;42.614;23.340;2022-07-25T01:26:18;32318.69;;;20.20;100.00
9690;BME280;4884;42.614;23.340;2022-07-25T01:28:43;28018.41;;;20.03;100.00
9690;BME280;4884;42.614;23.340;2022-07-25T01:31:09;18795.94;;;20.12;100.00
9690;BME280;4884;42.614;23.340;2022-07-25T01:33:34;16824.06;;;20.20;100.00
9690;BME280;4884;42.614;23.340;2022-07-25T01:36:00;18795.94;;;20.12;100.00
9690;BME280;4884;42.614;23.340;2022-07-25T01:38:25;14839.72;;;19.84;100.00
9690;BME280;4884;42.614;23.340;2022-07-25T01:40:51;12215.31;;;20.00;100.00
9690;BME280;4884;42.614;23.340;2022-07-25T01:43:16;6632.81;;;19.91;100.00
9690;BME280;4884;42.614;23.340;2022-07-25T01:45:42;6962.94;;;20.03;100.00
9690;BME280;4884;42.614;23.340;2022-07-25T01:48:07;15178.34;;;20.17;100.00
9690;BME280;4884;42.614;23.340;2022-07-25T01:50:33;29681.88;;;20.29;100.00
9690;BME280;4884;42.614;23.340;2022-07-25T01:52:58;41902.53;;;20.09;100.00
9690;BME280;4884;42.614;23.340;2022-07-25T01:55:23;47219.75;;;20.29;100.00
9690;BME280;4884;42.614;23.340;2022-07-25T01:57:49;51200.47;;;20.28;100.00
9690;BME280;4884;42.614;23.340;2022-07-25T02:00:15;57524.44;;;20.40;100.00
9690;BME280;4884;42.614;23.340;2022-07-25T02:02:41;67861.28;;;20.52;100.00
9690;BME280;4884;42.614;23.340;2022-07-25T02:05:09;85233.00;;;20.47;100.00
9690;BME280;4884;42.614;23.340;2022-07-25T02:07:36;76846.41;;;20.30;100.00
9690;BME280;4884;42.614;23.340;2022-07-25T02:10:03;66522.91;;;20.48;100.00
9690;BME280;4884;42.614;23.340;2022-07-25T02:12:29;56497.69;;;20.10;100.00
9690;BME280;4884;42.614;23.340;2022-07-25T02:14:54;55516.94;;;20.27;100.00
9690;BME280;4884;42.614;23.340;2022-07-25T02:17:20;54829.72;;;20.03;100.00
9690;BME280;4884;42.614;23.340;2022-07-25T02:19:45;46540.44;;;20.09;100.00
9690;BME280;4884;42.614;23.340;2022-07-25T02:22:11;37934.25;;;20.13;100.00
9690;BME280;4884;42.614;23.340;2022-07-25T02:24:36;31977.53;;;20.01;100.00
9690;BME280;4884;42.614;23.340;2022-07-25T02:27:03;32960.13;;;19.87;100.00
9690;BME280;4884;42.614;23.340;2022-07-25T02:29:29;41225.63;;;19.89;100.00
9690;BME280;4884;42.614;23.340;2022-07-25T02:31:54;39902.91;;;19.90;100.00
9690;BME280;4884;42.614;23.340;2022-07-25T02:34:20;38593.41;;;20.10;100.00
9690;BME280;4884;42.614;23.340;2022-07-25T02:36:45;37602.47;;;20.12;100.00
9690;BME280;4884;42.614;23.340;2022-07-25T02:39:11;41231.16;;;19.96;100.00
9690;BME280;4884;42.614;23.340;2022-07-25T02:41:37;42570.81;;;20.17;100.00
9690;BME280;4884;42.614;23.340;2022-07-25T02:44:04;38915.50;;;19.97;100.00
9690;BME280;4884;42.614;23.340;2022-07-25T02:46:29;49198.34;;;20.15;100.00
9690;BME280;4884;42.614;23.340;2022-07-25T02:48:55;51499.31;;;19.91;100.00
9690;BME280;4884;42.614;23.340;2022-07-25T02:51:20;60436.72;;;19.61;100.00
9690;BME280;4884;42.614;23.340;2022-07-25T02:53:46;67780.00;;;19.82;100.00
9690;BME280;4884;42.614;23.340;2022-07-25T02:56:11;71114.94;;;19.84;100.00
9690;BME280;4884;42.614;23.340;2022-07-25T02:58:36;74790.44;;;19.89;100.00
9690;BME280;4884;42.614;23.340;2022-07-25T03:01:02;87128.97;;;19.69;100.00
9690;BME280;4884;42.614;23.340;2022-07-25T03:03:27;103254.47;;;19.87;100.00
9690;BME280;4884;42.614;23.340;2022-07-25T03:05:53;132910.41;;;19.74;100.00
9690;BME280;4884;42.614;23.340;2022-07-25T03:08:18;151765.47;;;19.99;100.00
9690;BME280;4884;42.614;23.340;2022-07-25T03:10:44;159801.16;;;20.00;100.00
9690;BME280;4884;42.614;23.340;2022-07-25T03:13:09;158755.78;;;19.88;100.00
9690;BME280;4884;42.614;23.340;2022-07-25T03:15:35;159787.59;;;19.95;100.00
9690;BME280;4884;42.614;23.340;2022-07-25T03:18:00;159809.31;;;20.03;100.00
9690;BME280;4884;42.614;23.340;2022-07-25T03:20:26;159795.72;;;19.98;100.00
9690;BME280;4884;42.614;23.340;2022-07-25T03:22:51;159790.28;;;19.96;100.00
9690;BME280;4884;42.614;23.340;2022-07-25T03:25:16;159729.09;;;19.73;100.00
9690;BME280;4884;42.614;23.340;2022-07-25T03:27:42;159782.09;;;19.93;100.00
9690;BME280;4884;42.614;23.340;2022-07-25T03:30:08;159765.78;;;19.87;100.00
9690;BME280;4884;42.614;23.340;2022-07-25T03:32:33;159765.78;;;19.87;100.00
9690;BME280;4884;42.614;23.340;2022-07-25T03:34:59;159689.66;;;19.58;100.00
9690;BME280;4884;42.614;23.340;2022-07-25T03:37:24;159791.63;;;19.96;100.00
9690;BME280;4884;42.614;23.340;2022-07-25T03:39:49;159817.44;;;20.06;100.00
9690;BME280;4884;42.614;23.340;2022-07-25T03:42:15;159839.19;;;20.14;100.00
9690;BME280;4884;42.614;23.340;2022-07-25T03:44:41;159850.13;;;20.18;100.00
9690;BME280;4884;42.614;23.340;2022-07-25T03:47:06;159801.16;;;20.00;100.00
9690;BME280;4884;42.614;23.340;2022-07-25T03:49:31;159821.53;;;20.08;100.00
9690;BME280;4884;42.614;23.340;2022-07-25T03:51:57;159749.47;;;19.81;100.00
9690;BME280;4884;42.614;23.340;2022-07-25T03:54:23;159727.75;;;19.72;100.00
9690;BME280;4884;42.614;23.340;2022-07-25T03:56:49;159806.59;;;20.02;100.00
9690;BME280;4884;42.614;23.340;2022-07-25T03:59:17;159875.91;;;20.28;100.00
9690;BME280;4884;42.614;23.340;2022-07-25T04:01:46;159873.22;;;20.27;100.00
9690;BME280;4884;42.614;23.340;2022-07-25T04:04:11;159836.50;;;20.13;100.00
9690;BME280;4884;42.614;23.340;2022-07-25T04:06:38;159828.31;;;20.10;100.00
9690;BME280;4884;42.614;23.340;2022-07-25T04:09:04;159840.59;;;20.15;100.00
9690;BME280;4884;42.614;23.340;2022-07-25T04:11:30;159923.53;;;20.46;100.00
9690;BME280;4884;42.614;23.340;2022-07-25T04:13:56;159965.75;;;20.62;100.00
9690;BME280;4884;42.614;23.340;2022-07-25T04:16:22;159937.09;;;20.51;100.00
9690;BME280;4884;42.614;23.340;2022-07-25T04:18:48;160007.91;;;20.78;100.00
9690;BME280;4884;42.614;23.340;2022-07-25T04:21:13;159983.41;;;20.69;100.00
9690;BME280;4884;42.614;23.340;2022-07-25T04:23:39;159967.09;;;20.63;100.00
9690;BME280;4884;42.614;23.340;2022-07-25T04:26:04;159956.16;;;20.58;100.00
9690;BME280;4884;42.614;23.340;2022-07-25T04:28:30;159949.38;;;20.56;100.00
9690;BME280;4884;42.614;23.340;2022-07-25T04:30:56;160045.97;;;20.92;100.00
9690;BME280;4884;42.614;23.340;2022-07-25T04:33:22;159988.84;;;20.71;100.00
9690;BME280;4884;42.614;23.340;2022-07-25T04:35:47;160065.03;;;21.00;100.00
9690;BME280;4884;42.614;23.340;2022-07-25T04:38:13;160127.63;;;21.23;100.00
9690;BME280;4884;42.614;23.340;2022-07-25T04:40:38;160133.06;;;21.25;100.00
9690;BME280;4884;42.614;23.340;2022-07-25T04:43:04;160104.47;;;21.14;100.00
9690;BME280;4884;42.614;23.340;2022-07-25T04:45:31;160146.63;;;21.30;100.00
9690;BME280;4884;42.614;23.340;2022-07-25T04:47:57;160202.50;;;21.51;100.00
9690;BME280;4884;42.614;23.340;2022-07-25T04:50:22;160176.59;;;21.42;100.00
9690;BME280;4884;42.614;23.340;2022-07-25T04:52:48;160222.91;;;21.59;100.00
9690;BME280;4884;42.614;23.340;2022-07-25T04:55:13;160286.88;;;21.83;100.00
9690;BME280;4884;42.614;23.340;2022-07-25T04:57:39;160318.19;;;21.95;100.00
9690;BME280;4884;42.614;23.340;2022-07-25T05:00:06;160304.59;;;21.90;100.00
9690;BME280;4884;42.614;23.340;2022-07-25T05:02:32;160318.19;;;21.95;100.00
9690;BME280;4884;42.614;23.340;2022-07-25T05:04:58;160421.72;;;22.34;100.00
9690;BME280;4884;42.614;23.340;2022-07-25T05:07:23;160454.38;;;22.46;100.00
9690;BME280;4884;42.614;23.340;2022-07-25T05:09:49;160417.59;;;22.32;100.00
9690;BME280;4884;42.614;23.340;2022-07-25T05:12:14;160517.00;;;22.70;100.00
9690;BME280;4884;42.614;23.340;2022-07-25T05:14:39;160462.56;;;22.49;100.00
9690;BME280;4884;42.614;23.340;2022-07-25T05:17:05;160502.03;;;22.64;100.00
9690;BME280;4884;42.614;23.340;2022-07-25T05:19:30;160483.00;;;22.57;100.00
9690;BME280;4884;42.614;23.340;2022-07-25T05:21:56;160525.22;;;22.73;100.00
9690;BME280;4884;42.614;23.340;2022-07-25T05:24:22;160613.78;;;23.06;100.00
9690;BME280;4884;42.614;23.340;2022-07-25T05:26:48;160617.91;;;23.08;100.00
9690;BME280;4884;42.614;23.340;2022-07-25T05:29:13;160612.44;;;23.06;100.00
9690;BME280;4884;42.614;23.340;2022-07-25T05:31:39;160666.91;;;23.26;100.00
9690;BME280;4884;42.614;23.340;2022-07-25T05:34:04;160658.72;;;23.23;100.00
9690;BME280;4884;42.614;23.340;2022-07-25T05:36:30;160691.47;;;23.36;100.00
9690;BME280;4884;42.614;23.340;2022-07-25T05:38:55;160665.56;;;23.26;100.00
9690;BME280;4884;42.614;23.340;2022-07-25T05:41:21;160720.03;;;23.46;100.00
9690;BME280;4884;42.614;23.340;2022-07-25T05:43:46;160699.59;;;23.39;100.00
9690;BME280;4884;42.614;23.340;2022-07-25T05:46:13;160737.78;;;23.53;100.00
9690;BME280;4884;42.614;23.340;2022-07-25T05:48:40;160781.38;;;23.69;100.00
9690;BME280;4884;42.614;23.340;2022-07-25T05:51:05;160812.78;;;23.81;100.00
9690;BME280;4884;42.614;23.340;2022-07-25T05:53:31;160816.88;;;23.83;100.00
9690;BME280;4884;42.614;23.340;2022-07-25T05:55:57;160816.88;;;23.83;100.00
9690;BME280;4884;42.614;23.340;2022-07-25T05:58:22;160861.81;;;24.00;100.00
9690;BME280;4884;42.614;23.340;2022-07-25T06:00:48;160902.72;;;24.15;100.00
9690;BME280;4884;42.614;23.340;2022-07-25T06:03:18;160855.03;;;23.97;100.00
9690;BME280;4884;42.614;23.340;2022-07-25T06:05:44;160874.13;;;24.04;100.00
9690;BME280;4884;42.614;23.340;2022-07-25T06:08:11;160917.72;;;24.21;100.00
9690;BME280;4884;42.614;23.340;2022-07-25T06:10:38;160876.81;;;24.05;100.00
9690;BME280;4884;42.614;23.340;2022-07-25T06:13:03;160944.97;;;24.31;100.00
9690;BME280;4884;42.614;23.340;2022-07-25T06:15:29;160923.19;;;24.23;100.00
9690;BME280;4884;42.614;23.340;2022-07-25T06:17:54;160947.72;;;24.32;100.00
9690;BME280;4884;42.614;23.340;2022-07-25T06:20:20;161026.84;;;24.62;100.00
9690;BME280;4884;42.614;23.340;2022-07-25T06:22:45;160968.19;;;24.40;100.00
9690;BME280;4884;42.614;23.340;2022-07-25T06:25:11;161065.03;;;24.76;100.00
9690;BME280;4884;42.614;23.340;2022-07-25T06:27:37;161157.78;;;25.11;100.00
9690;BME280;4884;42.614;23.340;2022-07-25T06:30:04;161174.13;;;25.17;100.00
9690;BME280;4884;42.614;23.340;2022-07-25T06:32:30;161219.22;;;25.34;100.00
9690;BME280;4884;42.614;23.340;2022-07-25T06:34:55;161359.69;;;25.87;100.00
9690;BME280;4884;42.614;23.340;2022-07-25T06:37:21;161564.59;;;26.64;100.00
9690;BME280;4884;42.614;23.340;2022-07-25T06:39:46;161728.47;;;27.25;98.94
9690;BME280;4884;42.614;23.340;2022-07-25T06:42:12;161743.50;;;27.31;96.30
9690;BME280;4884;42.614;23.340;2022-07-25T06:44:37;161833.66;;;27.65;91.69
9690;BME280;4884;42.614;23.340;2022-07-25T06:47:03;161877.34;;;27.81;85.87
9690;BME280;4884;42.614;23.340;2022-07-25T06:49:29;161997.63;;;28.27;84.40
9690;BME280;4884;42.614;23.340;2022-07-25T06:51:55;162104.31;;;28.67;80.15
9690;BME280;4884;42.614;23.340;2022-07-25T06:54:20;162072.91;;;28.55;81.75
9690;BME280;4884;42.614;23.340;2022-07-25T06:56:46;162109.78;;;28.69;75.28
9690;BME280;4884;42.614;23.340;2022-07-25T06:59:11;162053.69;;;28.48;80.88
9690;BME280;4884;42.614;23.340;2022-07-25T07:01:37;162172.69;;;28.92;78.17
9690;BME280;4884;42.614;23.340;2022-07-25T07:04:03;162215.06;;;29.08;75.63
9690;BME280;4884;42.614;23.340;2022-07-25T07:06:28;162216.41;;;29.09;76.44
9690;BME280;4884;42.614;23.340;2022-07-25T07:08:54;162433.91;;;29.90;70.73
9690;BME280;4884;42.614;23.340;2022-07-25T07:11:20;162368.25;;;29.66;63.28
9690;BME280;4884;42.614;23.340;2022-07-25T07:13:46;162514.66;;;30.20;62.43
9690;BME280;4884;42.614;23.340;2022-07-25T07:16:11;162375.06;;;29.68;58.26
9690;BME280;4884;42.614;23.340;2022-07-25T07:18:37;162329.97;;;29.51;60.75
9690;BME280;4884;42.614;23.340;2022-07-25T07:21:03;162310.81;;;29.44;65.43
9690;BME280;4884;42.614;23.340;2022-07-25T07:23:29;162390.16;;;29.74;64.09
9690;BME280;4884;42.614;23.340;2022-07-25T07:25:55;162444.84;;;29.94;60.70
9690;BME280;4884;42.614;23.340;2022-07-25T07:28:20;162448.97;;;29.96;61.70
9690;BME280;4884;42.614;23.340;2022-07-25T07:30:46;162573.53;;;30.43;57.73
9690;BME280;4884;42.614;23.340;2022-07-25T07:33:11;162581.75;;;30.46;59.73
9690;BME280;4884;42.614;23.340;2022-07-25T07:35:36;162500.97;;;30.15;55.63
9690;BME280;4884;42.614;23.340;2022-07-25T07:38:02;162614.59;;;30.58;58.95
9690;BME280;4884;42.614;23.340;2022-07-25T07:40:27;162804.88;;;31.29;55.52
9690;BME280;4884;42.614;23.340;2022-07-25T07:42:53;162677.53;;;30.82;51.39
9690;BME280;4884;42.614;23.340;2022-07-25T07:45:23;162713.19;;;30.95;56.11
9690;BME280;4884;42.614;23.340;2022-07-25T07:47:50;162673.41;;;30.80;51.04
9690;BME280;4884;42.614;23.340;2022-07-25T07:50:19;162370.94;;;29.67;54.27
9690;BME280;4884;42.614;23.340;2022-07-25T07:52:46;162474.97;;;30.06;52.65
9690;BME280;4884;42.614;23.340;2022-07-25T07:55:14;162620.06;;;30.60;56.40
9690;BME280;4884;42.614;23.340;2022-07-25T07:57:59;162392.94;;;29.75;50.22
9690;BME280;4884;42.614;23.340;2022-07-25T08:00:26;162502.31;;;30.16;53.86
9690;BME280;4884;42.614;23.340;2022-07-25T08:02:53;162494.13;;;30.13;51.23
9690;BME280;4884;42.614;23.340;2022-07-25T08:05:21;162536.53;;;30.29;53.22
9690;BME280;4884;42.614;23.340;2022-07-25T08:07:48;162589.94;;;30.49;52.59
9690;BME280;4884;42.614;23.340;2022-07-25T08:10:22;162720.00;;;30.97;49.55
9690;BME280;4884;42.614;23.340;2022-07-25T08:12:49;162876.13;;;31.56;51.07
9690;BME280;4884;42.614;23.340;2022-07-25T08:15:15;162818.56;;;31.34;49.72
9690;BME280;4884;42.614;23.340;2022-07-25T08:17:42;162855.59;;;31.48;45.52
9690;BME280;4884;42.614;23.340;2022-07-25T08:20:08;162914.44;;;31.70;48.23
9690;BME280;4884;42.614;23.340;2022-07-25T08:22:35;162666.59;;;30.77;46.46
9690;BME280;4884;42.614;23.340;2022-07-25T08:25:01;162741.91;;;31.06;49.98
9690;BME280;4884;42.614;23.340;2022-07-25T08:27:27;162843.19;;;31.44;50.17
9690;BME280;4884;42.614;23.340;2022-07-25T08:29:52;162748.72;;;31.08;49.22
9690;BME280;4884;42.614;23.340;2022-07-25T08:32:17;163014.44;;;32.08;44.79
9690;BME280;4884;42.614;23.340;2022-07-25T08:34:43;162851.47;;;31.47;45.13
9690;BME280;4884;42.614;23.340;2022-07-25T08:37:08;162969.19;;;31.91;45.09
9690;BME280;4884;42.614;23.340;2022-07-25T08:39:34;162863.78;;;31.51;45.16
9690;BME280;4884;42.614;23.340;2022-07-25T08:42:00;163059.66;;;32.25;45.13
9690;BME280;4884;42.614;23.340;2022-07-25T08:44:30;163140.47;;;32.55;42.52
9690;BME280;4884;42.614;23.340;2022-07-25T08:46:58;163074.69;;;32.30;44.07
9690;BME280;4884;42.614;23.340;2022-07-25T08:49:26;163063.75;;;32.26;42.63
9690;BME280;4884;42.614;23.340;2022-07-25T08:51:54;163250.13;;;32.96;42.47
9690;BME280;4884;42.614;23.340;2022-07-25T08:54:22;163029.53;;;32.13;40.77
9690;BME280;4884;42.614;23.340;2022-07-25T08:56:48;163143.22;;;32.56;43.75
9690;BME280;4884;42.614;23.340;2022-07-25T08:59:14;163126.75;;;32.50;42.41
9690;BME280;4884;42.614;23.340;2022-07-25T09:01:39;163362.50;;;33.38;42.84
9690;BME280;4884;42.614;23.340;2022-07-25T09:04:07;163468.09;;;33.78;40.99
9690;BME280;4884;42.614;23.340;2022-07-25T09:06:33;163568.22;;;34.15;42.12
9690;BME280;4884;42.614;23.340;2022-07-25T09:09:00;163407.75;;;33.55;40.58
9690;BME280;4884;42.614;23.340;2022-07-25T09:11:33;162952.75;;;31.85;40.71
9690;BME280;4884;42.614;23.340;2022-07-25T09:14:05;162891.13;;;31.62;43.13
9690;BME280;4884;42.614;23.340;2022-07-25T09:16:32;163258.31;;;32.99;43.50
9690;BME280;4884;42.614;23.340;2022-07-25T09:19:06;163291.28;;;33.11;42.95
9690;BME280;4884;42.614;23.340;2022-07-25T09:21:31;163007.63;;;32.05;41.50
9690;BME280;4884;42.614;23.340;2022-07-25T09:24:06;163291.28;;;33.11;41.35
9690;BME280;4884;42.614;23.340;2022-07-25T09:26:51;163503.75;;;33.91;40.65
9690;BME280;4884;42.614;23.340;2022-07-25T09:29:27;163536.63;;;34.03;41.15
9690;BME280;4884;42.614;23.340;2022-07-25T09:31:55;163521.53;;;33.98;40.69
9690;BME280;4884;42.614;23.340;2022-07-25T09:34:35;163443.47;;;33.68;39.05
9690;BME280;4884;42.614;23.340;2022-07-25T09:37:03;162889.78;;;31.61;43.64
9690;BME280;4884;42.614;23.340;2022-07-25T09:39:36;162658.34;;;30.74;43.24
9690;BME280;4884;42.614;23.340;2022-07-25T09:42:26;162329.97;;;29.51;48.06
9690;BME280;4884;42.614;23.340;2022-07-25T09:47:36;163344.72;;;33.31;38.78
9690;BME280;4884;42.614;23.340;2022-07-25T09:50:03;163566.84;;;34.15;39.76
9690;BME280;4884;42.614;23.340;2022-07-25T09:52:29;163561.31;;;34.12;40.93
9690;BME280;4884;42.614;23.340;2022-07-25T09:54:54;163538.03;;;34.04;40.31
9690;BME280;4884;42.614;23.340;2022-07-25T09:57:21;163406.34;;;33.54;39.69
9690;BME280;4884;42.614;23.340;2022-07-25T09:59:48;162814.44;;;31.33;42.69
9690;BME280;4884;42.614;23.340;2022-07-25T10:02:20;163093.88;;;32.38;42.14
9690;BME280;4884;42.614;23.340;2022-07-25T10:07:36;163343.31;;;33.31;37.96
9690;BME280;4884;42.614;23.340;2022-07-25T10:10:03;163505.09;;;33.91;39.91
9690;BME280;4884;42.614;23.340;2022-07-25T10:12:29;163762.97;;;34.88;39.42
9690;BME280;4884;42.614;23.340;2022-07-25T10:15:07;163837.03;;;35.16;37.84
9690;BME280;4884;42.614;23.340;2022-07-25T10:17:35;163278.88;;;33.07;39.45
9690;BME280;4884;42.614;23.340;2022-07-25T10:20:01;162961.00;;;31.88;41.75
9690;BME280;4884;42.614;23.340;2022-07-25T10:22:41;162773.38;;;31.17;44.05
9690;BME280;4884;42.614;23.340;2022-07-25T10:25:17;163222.72;;;32.86;44.07
9690;BME280;4884;42.614;23.340;2022-07-25T10:27:49;163439.31;;;33.67;40.01
9690;BME280;4884;42.614;23.340;2022-07-25T10:30:25;163635.41;;;34.40;38.26
9690;BME280;4884;42.614;23.340;2022-07-25T10:32:59;163716.34;;;34.70;36.15
9690;BME280;4884;42.614;23.340;2022-07-25T10:35:26;163337.81;;;33.29;39.25
9690;BME280;4884;42.614;23.340;2022-07-25T10:37:53;162821.28;;;31.35;44.08
9690;BME280;4884;42.614;23.340;2022-07-25T10:40:42;162599.53;;;30.52;43.92
9690;BME280;4884;42.614;23.340;2022-07-25T10:43:11;162455.84;;;29.98;45.63
9690;BME280;4884;42.614;23.340;2022-07-25T10:45:41;162390.16;;;29.74;46.33
9690;BME280;4884;42.614;23.340;2022-07-25T10:48:09;162432.56;;;29.90;43.94
9690;BME280;4884;42.614;23.340;2022-07-25T10:50:45;163159.72;;;32.62;41.07
9690;BME280;4884;42.614;23.340;2022-07-25T10:53:11;163315.91;;;33.21;40.19
9690;BME280;4884;42.614;23.340;2022-07-25T10:55:36;163549.00;;;34.08;40.74
9690;BME280;4884;42.614;23.340;2022-07-25T10:58:03;163773.94;;;34.92;37.97
9690;BME280;4884;42.614;23.340;2022-07-25T11:00:31;163881.00;;;35.32;34.92
9690;BME280;4884;42.614;23.340;2022-07-25T11:02:57;163861.78;;;35.25;32.98
9690;BME280;4884;42.614;23.340;2022-07-25T11:05:22;164004.50;;;35.78;37.10
9690;BME280;4884;42.614;23.340;2022-07-25T11:07:51;164202.22;;;36.52;35.99
9690;BME280;4884;42.614;23.340;2022-07-25T11:10:24;164229.66;;;36.62;33.94
9690;BME280;4884;42.614;23.340;2022-07-25T11:12:50;164132.16;;;36.26;33.81
9690;BME280;4884;42.614;23.340;2022-07-25T11:15:21;164206.34;;;36.54;32.52
9690;BME280;4884;42.614;23.340;2022-07-25T11:17:51;164317.56;;;36.95;34.34
9690;BME280;4884;42.614;23.340;2022-07-25T11:20:17;164154.19;;;36.34;35.10
9690;BME280;4884;42.614;23.340;2022-07-25T11:22:53;163658.69;;;34.49;35.15
9690;BME280;4884;42.614;23.340;2022-07-25T11:25:21;163299.47;;;33.14;35.36
9690;BME280;4884;42.614;23.340;2022-07-25T11:27:55;162950.06;;;31.84;37.09
9690;BME280;4884;42.614;23.340;2022-07-25T11:30:22;162828.09;;;31.38;37.91
9690;BME280;4884;42.614;23.340;2022-07-25T11:32:53;163058.25;;;32.24;37.80
9690;BME280;4884;42.614;23.340;2022-07-25T11:35:22;163425.56;;;33.62;35.48
9690;BME280;4884;42.614;23.340;2022-07-25T11:37:48;163675.19;;;34.55;33.48
9690;BME280;4884;42.614;23.340;2022-07-25T11:40:15;163845.34;;;35.19;34.99
9690;BME280;4884;42.614;23.340;2022-07-25T11:45:18;164122.59;;;36.22;32.83
9690;BME280;4884;42.614;23.340;2022-07-25T11:47:44;164224.16;;;36.60;31.14
9690;BME280;4884;42.614;23.340;2022-07-25T11:50:09;163518.81;;;33.97;34.82
9690;BME280;4884;42.614;23.340;2022-07-25T11:52:40;163162.41;;;32.63;36.19
9690;BME280;4884;42.614;23.340;2022-07-25T11:55:12;163010.34;;;32.06;38.73
9690;BME280;4884;42.614;23.340;2022-07-25T11:57:40;163202.16;;;32.78;37.15
9690;BME280;4884;42.614;23.340;2022-07-25T12:00:18;163588.78;;;34.23;36.54
9690;BME280;4884;42.614;23.340;2022-07-25T12:02:44;163876.88;;;35.30;34.51
9690;BME280;4884;42.614;23.340;2022-07-25T12:05:12;163728.72;;;34.75;35.03
9690;BME280;4884;42.614;23.340;2022-07-25T12:07:44;163341.94;;;33.30;36.80
9690;BME280;4884;42.614;23.340;2022-07-25T12:10:18;163050.06;;;32.21;37.36
9690;BME280;4884;42.614;23.340;2022-07-25T12:12:55;163022.66;;;32.11;38.36
9690;BME280;4884;42.614;23.340;2022-07-25T12:15:23;163362.50;;;33.38;36.31
9690;BME280;4884;42.614;23.340;2022-07-25T12:17:51;162822.63;;;31.36;36.91
9690;BME280;4884;42.614;23.340;2022-07-25T12:20:28;162692.59;;;30.87;40.55
9690;BME280;4884;42.614;23.340;2022-07-25T12:22:57;162652.88;;;30.72;40.72
9690;BME280;4884;42.614;23.340;2022-07-25T12:25:24;162490.03;;;30.11;41.40
9690;BME280;4884;42.614;23.340;2022-07-25T12:27:50;162469.50;;;30.04;43.21
9690;BME280;4884;42.614;23.340;2022-07-25T12:30:16;162375.06;;;29.68;43.92
9690;BME280;4884;42.614;23.340;2022-07-25T12:32:42;162985.63;;;31.97;42.44
9690;BME280;4884;42.614;23.340;2022-07-25T12:35:10;163499.63;;;33.89;38.05
9690;BME280;4884;42.614;23.340;2022-07-25T12:37:36;163617.59;;;34.34;37.07
9690;BME280;4884;42.614;23.340;2022-07-25T12:40:03;163754.78;;;34.85;35.68
9690;BME280;4884;42.614;23.340;2022-07-25T12:42:29;163952.31;;;35.59;34.46
9690;BME280;4884;42.614;23.340;2022-07-25T12:44:55;163167.91;;;32.65;34.63
9690;BME280;4884;42.614;23.340;2022-07-25T12:47:22;163219.97;;;32.85;35.26
9690;BME280;4884;42.614;23.340;2022-07-25T12:49:47;163235.03;;;32.90;36.40
9690;BME280;4884;42.614;23.340;2022-07-25T12:52:13;163374.81;;;33.43;35.02
9690;BME280;4884;42.614;23.340;2022-07-25T12:54:38;163646.38;;;34.44;34.78
9690;BME280;4884;42.614;23.340;2022-07-25T12:57:04;163625.78;;;34.37;35.74
9690;BME280;4884;42.614;23.340;2022-07-25T12:59:30;163591.53;;;34.24;35.71
9690;BME280;4884;42.614;23.340;2022-07-25T13:01:55;163402.28;;;33.53;36.70
9690;BME280;4884;42.614;23.340;2022-07-25T13:04:21;163043.19;;;32.19;37.91